sensor_id;sensor_type;location;lat;lon;timestamp;P1;durP1;ratioP1;P2;durP2;ratioP2
34645;SDS011;20857;47.808;12.482;2022-07-06T00:01:16;4.00;;;3.60;;
34645;SDS011;20857;47.808;12.482;2022-07-06T00:03:42;5.75;;;4.05;;
34645;SDS011;20857;47.808;12.482;2022-07-06T00:06:08;6.78;;;3.78;;
34645;SDS011;20857;47.808;12.482;2022-07-06T00:08:34;4.28;;;3.15;;
34645;SDS011;20857;47.808;12.482;2022-07-06T00:10:59;7.78;;;3.03;;
34645;SDS011;20857;47.808;12.482;2022-07-06T00:13:26;5.10;;;3.50;;
34645;SDS011;20857;47.808;12.482;2022-07-06T00:15:52;3.25;;;2.95;;
34645;SDS011;20857;47.808;12.482;2022-07-06T00:18:18;3.83;;;3.53;;
34645;SDS011;20857;47.808;12.482;2022-07-06T00:20:43;4.72;;;3.35;;
34645;SDS011;20857;47.808;12.482;2022-07-06T00:23:09;4.95;;;3.47;;
34645;SDS011;20857;47.808;12.482;2022-07-06T00:25:35;4.38;;;3.20;;
34645;SDS011;20857;47.808;12.482;2022-07-06T00:28:01;3.45;;;3.00;;
34645;SDS011;20857;47.808;12.482;2022-07-06T00:30:27;8.18;;;3.60;;
34645;SDS011;20857;47.808;12.482;2022-07-06T00:32:52;3.38;;;2.90;;
34645;SDS011;20857;47.808;12.482;2022-07-06T00:35:18;4.28;;;2.92;;
34645;SDS011;20857;47.808;12.482;2022-07-06T00:37:44;3.60;;;3.30;;
34645;SDS011;20857;47.808;12.482;2022-07-06T00:40:09;3.78;;;3.47;;
34645;SDS011;20857;47.808;12.482;2022-07-06T00:42:42;3.50;;;2.75;;
34645;SDS011;20857;47.808;12.482;2022-07-06T00:45:10;5.72;;;3.17;;
34645;SDS011;20857;47.808;12.482;2022-07-06T00:47:38;4.28;;;3.30;;
34645;SDS011;20857;47.808;12.482;2022-07-06T00:50:05;5.40;;;3.33;;
34645;SDS011;20857;47.808;12.482;2022-07-06T00:52:59;5.53;;;3.40;;
34645;SDS011;20857;47.808;12.482;2022-07-06T00:55:27;6.00;;;3.85;;
34645;SDS011;20857;47.808;12.482;2022-07-06T00:57:54;4.05;;;3.45;;
34645;SDS011;20857;47.808;12.482;2022-07-06T01:00:22;5.53;;;3.00;;
34645;SDS011;20857;47.808;12.482;2022-07-06T01:02:49;3.15;;;2.85;;
34645;SDS011;20857;47.808;12.482;2022-07-06T01:05:16;3.47;;;2.88;;
34645;SDS011;20857;47.808;12.482;2022-07-06T01:07:42;5.07;;;3.50;;
34645;SDS011;20857;47.808;12.482;2022-07-06T01:10:11;4.63;;;3.30;;
34645;SDS011;20857;47.808;12.482;2022-07-06T01:12:39;8.07;;;3.50;;
34645;SDS011;20857;47.808;12.482;2022-07-06T01:15:06;2.90;;;2.63;;
34645;SDS011;20857;47.808;12.482;2022-07-06T01:22:37;3.15;;;2.95;;
34645;SDS011;20857;47.808;12.482;2022-07-06T01:25:03;5.05;;;3.17;;
34645;SDS011;20857;47.808;12.482;2022-07-06T01:27:30;4.28;;;3.03;;
34645;SDS011;20857;47.808;12.482;2022-07-06T01:29:56;3.38;;;3.08;;
34645;SDS011;20857;47.808;12.482;2022-07-06T01:32:21;3.85;;;3.50;;
34645;SDS011;20857;47.808;12.482;2022-07-06T01:34:47;4.20;;;3.80;;
34645;SDS011;20857;47.808;12.482;2022-07-06T01:37:13;3.50;;;3.20;;
34645;SDS011;20857;47.808;12.482;2022-07-06T01:39:38;3.45;;;3.13;;
34645;SDS011;20857;47.808;12.482;2022-07-06T01:42:04;4.57;;;3.10;;
34645;SDS011;20857;47.808;12.482;2022-07-06T01:44:30;4.38;;;3.30;;
34645;SDS011;20857;47.808;12.482;2022-07-06T01:46:56;4.00;;;3.50;;
34645;SDS011;20857;47.808;12.482;2022-07-06T01:49:21;9.23;;;3.08;;
34645;SDS011;20857;47.808;12.482;2022-07-06T01:51:47;4.53;;;3.13;;
34645;SDS011;20857;47.808;12.482;2022-07-06T01:54:12;3.97;;;3.40;;
34645;SDS011;20857;47.808;12.482;2022-07-06T01:56:38;6.00;;;3.70;;
34645;SDS011;20857;47.808;12.482;2022-07-06T01:59:04;4.47;;;3.42;;
34645;SDS011;20857;47.808;12.482;2022-07-06T02:01:29;3.40;;;3.10;;
34645;SDS011;20857;47.808;12.482;2022-07-06T02:03:55;5.20;;;3.22;;
34645;SDS011;20857;47.808;12.482;2022-07-06T02:06:21;3.40;;;3.10;;
34645;SDS011;20857;47.808;12.482;2022-07-06T02:08:46;5.88;;;3.90;;
34645;SDS011;20857;47.808;12.482;2022-07-06T02:11:12;5.18;;;3.50;;
34645;SDS011;20857;47.808;12.482;2022-07-06T02:13:38;3.67;;;3.15;;
34645;SDS011;20857;47.808;12.482;2022-07-06T02:16:04;5.68;;;3.60;;
34645;SDS011;20857;47.808;12.482;2022-07-06T02:18:30;5.85;;;3.50;;
34645;SDS011;20857;47.808;12.482;2022-07-06T02:20:55;9.18;;;3.75;;
34645;SDS011;20857;47.808;12.482;2022-07-06T02:23:21;3.78;;;3.47;;
34645;SDS011;20857;47.808;12.482;2022-07-06T02:25:47;5.18;;;3.95;;
34645;SDS011;20857;47.808;12.482;2022-07-06T02:28:13;4.82;;;4.13;;
34645;SDS011;20857;47.808;12.482;2022-07-06T02:30:38;5.43;;;3.95;;
34645;SDS011;20857;47.808;12.482;2022-07-06T02:33:04;5.38;;;3.75;;
34645;SDS011;20857;47.808;12.482;2022-07-06T02:35:29;4.00;;;3.70;;
34645;SDS011;20857;47.808;12.482;2022-07-06T02:37:55;3.85;;;3.38;;
34645;SDS011;20857;47.808;12.482;2022-07-06T02:40:21;4.30;;;3.90;;
34645;SDS011;20857;47.808;12.482;2022-07-06T02:42:46;5.38;;;4.05;;
34645;SDS011;20857;47.808;12.482;2022-07-06T02:45:12;4.80;;;4.13;;
34645;SDS011;20857;47.808;12.482;2022-07-06T02:47:37;5.90;;;3.50;;
34645;SDS011;20857;47.808;12.482;2022-07-06T02:50:04;5.88;;;3.83;;
34645;SDS011;20857;47.808;12.482;2022-07-06T02:55:00;6.47;;;3.83;;
34645;SDS011;20857;47.808;12.482;2022-07-06T02:57:26;4.53;;;3.30;;
34645;SDS011;20857;47.808;12.482;2022-07-06T02:59:51;6.47;;;3.70;;
34645;SDS011;20857;47.808;12.482;2022-07-06T03:02:17;5.60;;;3.88;;
34645;SDS011;20857;47.808;12.482;2022-07-06T03:04:43;3.92;;;3.63;;
34645;SDS011;20857;47.808;12.482;2022-07-06T03:07:09;5.65;;;3.40;;
34645;SDS011;20857;47.808;12.482;2022-07-06T03:09:34;5.28;;;3.10;;
34645;SDS011;20857;47.808;12.482;2022-07-06T03:12:00;4.10;;;3.70;;
34645;SDS011;20857;47.808;12.482;2022-07-06T03:14:26;6.82;;;4.05;;
34645;SDS011;20857;47.808;12.482;2022-07-06T03:16:51;6.50;;;3.80;;
34645;SDS011;20857;47.808;12.482;2022-07-06T03:19:17;4.82;;;3.47;;
34645;SDS011;20857;47.808;12.482;2022-07-06T03:21:43;4.05;;;3.65;;
34645;SDS011;20857;47.808;12.482;2022-07-06T03:24:09;4.47;;;3.22;;
34645;SDS011;20857;47.808;12.482;2022-07-06T03:26:34;4.47;;;3.67;;
34645;SDS011;20857;47.808;12.482;2022-07-06T03:29:00;3.83;;;3.50;;
34645;SDS011;20857;47.808;12.482;2022-07-06T03:31:26;3.97;;;3.50;;
34645;SDS011;20857;47.808;12.482;2022-07-06T03:33:51;5.57;;;3.83;;
34645;SDS011;20857;47.808;12.482;2022-07-06T03:36:17;3.88;;;3.25;;
34645;SDS011;20857;47.808;12.482;2022-07-06T03:38:43;3.72;;;3.35;;
34645;SDS011;20857;47.808;12.482;2022-07-06T03:41:08;6.90;;;3.50;;
34645;SDS011;20857;47.808;12.482;2022-07-06T03:43:34;7.80;;;3.85;;
34645;SDS011;20857;47.808;12.482;2022-07-06T03:46:00;7.40;;;3.85;;
34645;SDS011;20857;47.808;12.482;2022-07-06T03:48:25;4.00;;;3.05;;
34645;SDS011;20857;47.808;12.482;2022-07-06T03:50:51;4.80;;;3.90;;
34645;SDS011;20857;47.808;12.482;2022-07-06T03:53:17;3.78;;;3.47;;
34645;SDS011;20857;47.808;12.482;2022-07-06T03:55:42;12.13;;;4.00;;
34645;SDS011;20857;47.808;12.482;2022-07-06T03:58:08;8.40;;;3.15;;
34645;SDS011;20857;47.808;12.482;2022-07-06T04:00:34;4.50;;;4.10;;
34645;SDS011;20857;47.808;12.482;2022-07-06T04:03:00;8.05;;;3.83;;
34645;SDS011;20857;47.808;12.482;2022-07-06T04:05:25;9.57;;;4.60;;
34645;SDS011;20857;47.808;12.482;2022-07-06T04:07:51;6.53;;;3.90;;
34645;SDS011;20857;47.808;12.482;2022-07-06T04:10:17;4.15;;;3.67;;
34645;SDS011;20857;47.808;12.482;2022-07-06T04:12:43;6.38;;;4.22;;
34645;SDS011;20857;47.808;12.482;2022-07-06T04:15:10;3.53;;;2.97;;
34645;SDS011;20857;47.808;12.482;2022-07-06T04:17:37;4.32;;;3.70;;
34645;SDS011;20857;47.808;12.482;2022-07-06T04:20:18;4.90;;;3.60;;
34645;SDS011;20857;47.808;12.482;2022-07-06T04:22:44;3.80;;;3.50;;
34645;SDS011;20857;47.808;12.482;2022-07-06T04:25:10;4.22;;;3.72;;
34645;SDS011;20857;47.808;12.482;2022-07-06T04:27:35;6.75;;;3.13;;
34645;SDS011;20857;47.808;12.482;2022-07-06T04:30:02;5.30;;;3.58;;
34645;SDS011;20857;47.808;12.482;2022-07-06T04:32:29;4.18;;;3.60;;
34645;SDS011;20857;47.808;12.482;2022-07-06T04:34:54;4.53;;;3.20;;
34645;SDS011;20857;47.808;12.482;2022-07-06T04:37:20;3.40;;;3.10;;
34645;SDS011;20857;47.808;12.482;2022-07-06T04:39:45;3.50;;;3.20;;
34645;SDS011;20857;47.808;12.482;2022-07-06T04:42:11;4.28;;;3.10;;
34645;SDS011;20857;47.808;12.482;2022-07-06T04:44:37;5.28;;;3.33;;
34645;SDS011;20857;47.808;12.482;2022-07-06T04:47:02;3.63;;;2.97;;
34645;SDS011;20857;47.808;12.482;2022-07-06T04:49:28;3.15;;;2.88;;
34645;SDS011;20857;47.808;12.482;2022-07-06T04:51:54;7.07;;;3.20;;
34645;SDS011;20857;47.808;12.482;2022-07-06T04:54:19;4.88;;;3.40;;
34645;SDS011;20857;47.808;12.482;2022-07-06T04:56:45;4.30;;;3.42;;
34645;SDS011;20857;47.808;12.482;2022-07-06T04:59:11;8.07;;;3.45;;
34645;SDS011;20857;47.808;12.482;2022-07-06T05:01:37;4.38;;;3.35;;
34645;SDS011;20857;47.808;12.482;2022-07-06T05:04:03;6.18;;;3.22;;
34645;SDS011;20857;47.808;12.482;2022-07-06T05:06:29;8.02;;;3.70;;
34645;SDS011;20857;47.808;12.482;2022-07-06T05:08:55;3.40;;;3.17;;
34645;SDS011;20857;47.808;12.482;2022-07-06T05:11:21;6.32;;;3.55;;
34645;SDS011;20857;47.808;12.482;2022-07-06T05:13:48;6.85;;;2.85;;
34645;SDS011;20857;47.808;12.482;2022-07-06T05:16:13;6.03;;;3.63;;
34645;SDS011;20857;47.808;12.482;2022-07-06T05:18:39;3.67;;;2.60;;
34645;SDS011;20857;47.808;12.482;2022-07-06T05:21:05;12.20;;;2.90;;
34645;SDS011;20857;47.808;12.482;2022-07-06T05:23:30;6.60;;;3.28;;
34645;SDS011;20857;47.808;12.482;2022-07-06T05:25:56;4.38;;;2.70;;
34645;SDS011;20857;47.808;12.482;2022-07-06T05:28:22;3.25;;;2.95;;
34645;SDS011;20857;47.808;12.482;2022-07-06T05:30:47;9.48;;;3.50;;
34645;SDS011;20857;47.808;12.482;2022-07-06T05:33:13;5.03;;;3.05;;
34645;SDS011;20857;47.808;12.482;2022-07-06T05:35:38;4.50;;;3.03;;
34645;SDS011;20857;47.808;12.482;2022-07-06T05:38:04;5.30;;;2.85;;
34645;SDS011;20857;47.808;12.482;2022-07-06T05:40:30;5.63;;;3.17;;
34645;SDS011;20857;47.808;12.482;2022-07-06T05:42:55;6.00;;;3.17;;
34645;SDS011;20857;47.808;12.482;2022-07-06T05:45:21;4.13;;;2.50;;
34645;SDS011;20857;47.808;12.482;2022-07-06T05:47:47;5.20;;;2.88;;
34645;SDS011;20857;47.808;12.482;2022-07-06T05:50:31;5.35;;;3.10;;
34645;SDS011;20857;47.808;12.482;2022-07-06T05:52:58;3.00;;;2.70;;
34645;SDS011;20857;47.808;12.482;2022-07-06T05:55:26;3.40;;;2.70;;
34645;SDS011;20857;47.808;12.482;2022-07-06T05:57:52;5.15;;;3.10;;
34645;SDS011;20857;47.808;12.482;2022-07-06T06:00:19;2.97;;;2.35;;
34645;SDS011;20857;47.808;12.482;2022-07-06T06:02:46;3.17;;;2.47;;
34645;SDS011;20857;47.808;12.482;2022-07-06T06:05:12;3.80;;;2.60;;
34645;SDS011;20857;47.808;12.482;2022-07-06T06:07:39;6.03;;;2.53;;
34645;SDS011;20857;47.808;12.482;2022-07-06T06:10:07;5.38;;;2.45;;
34645;SDS011;20857;47.808;12.482;2022-07-06T06:12:34;2.53;;;2.33;;
34645;SDS011;20857;47.808;12.482;2022-07-06T06:15:00;2.38;;;2.17;;
34645;SDS011;20857;47.808;12.482;2022-07-06T06:17:26;4.30;;;2.17;;
34645;SDS011;20857;47.808;12.482;2022-07-06T06:19:52;6.10;;;2.50;;
34645;SDS011;20857;47.808;12.482;2022-07-06T06:22:19;6.40;;;2.55;;
34645;SDS011;20857;47.808;12.482;2022-07-06T06:24:45;7.05;;;2.90;;
34645;SDS011;20857;47.808;12.482;2022-07-06T06:27:11;2.53;;;2.22;;
34645;SDS011;20857;47.808;12.482;2022-07-06T06:29:37;3.25;;;2.03;;
34645;SDS011;20857;47.808;12.482;2022-07-06T06:32:05;10.95;;;2.17;;
34645;SDS011;20857;47.808;12.482;2022-07-06T06:34:31;4.97;;;2.83;;
34645;SDS011;20857;47.808;12.482;2022-07-06T06:36:57;5.38;;;2.60;;
34645;SDS011;20857;47.808;12.482;2022-07-06T06:39:23;4.05;;;1.90;;
34645;SDS011;20857;47.808;12.482;2022-07-06T06:41:49;4.45;;;2.22;;
34645;SDS011;20857;47.808;12.482;2022-07-06T06:44:14;5.40;;;2.20;;
34645;SDS011;20857;47.808;12.482;2022-07-06T06:46:40;2.65;;;1.98;;
34645;SDS011;20857;47.808;12.482;2022-07-06T06:49:06;4.05;;;2.20;;
34645;SDS011;20857;47.808;12.482;2022-07-06T06:51:32;4.03;;;2.05;;
34645;SDS011;20857;47.808;12.482;2022-07-06T06:53:58;4.30;;;1.95;;
34645;SDS011;20857;47.808;12.482;2022-07-06T06:56:24;2.47;;;1.92;;
34645;SDS011;20857;47.808;12.482;2022-07-06T06:58:49;4.53;;;1.50;;
34645;SDS011;20857;47.808;12.482;2022-07-06T07:01:15;2.42;;;2.08;;
34645;SDS011;20857;47.808;12.482;2022-07-06T07:03:41;2.15;;;1.98;;
34645;SDS011;20857;47.808;12.482;2022-07-06T07:06:06;2.00;;;1.63;;
34645;SDS011;20857;47.808;12.482;2022-07-06T07:08:32;3.22;;;2.00;;
34645;SDS011;20857;47.808;12.482;2022-07-06T07:10:58;3.92;;;1.73;;
34645;SDS011;20857;47.808;12.482;2022-07-06T07:13:23;3.03;;;2.03;;
34645;SDS011;20857;47.808;12.482;2022-07-06T07:15:49;4.00;;;2.05;;
34645;SDS011;20857;47.808;12.482;2022-07-06T07:18:15;2.47;;;1.73;;
34645;SDS011;20857;47.808;12.482;2022-07-06T07:20:40;4.85;;;2.00;;
34645;SDS011;20857;47.808;12.482;2022-07-06T07:23:06;2.08;;;1.50;;
34645;SDS011;20857;47.808;12.482;2022-07-06T07:25:31;2.28;;;1.40;;
34645;SDS011;20857;47.808;12.482;2022-07-06T07:27:57;2.70;;;1.33;;
34645;SDS011;20857;47.808;12.482;2022-07-06T07:30:23;5.22;;;2.40;;
34645;SDS011;20857;47.808;12.482;2022-07-06T07:32:48;1.75;;;1.17;;
34645;SDS011;20857;47.808;12.482;2022-07-06T07:35:14;2.92;;;1.30;;
34645;SDS011;20857;47.808;12.482;2022-07-06T07:37:40;3.78;;;1.30;;
34645;SDS011;20857;47.808;12.482;2022-07-06T07:40:05;2.80;;;1.38;;
34645;SDS011;20857;47.808;12.482;2022-07-06T07:42:32;2.25;;;1.25;;
34645;SDS011;20857;47.808;12.482;2022-07-06T07:44:57;2.60;;;1.38;;
34645;SDS011;20857;47.808;12.482;2022-07-06T07:47:23;4.60;;;1.38;;
34645;SDS011;20857;47.808;12.482;2022-07-06T07:49:49;2.05;;;1.30;;
34645;SDS011;20857;47.808;12.482;2022-07-06T07:52:14;3.10;;;1.20;;
34645;SDS011;20857;47.808;12.482;2022-07-06T07:54:40;1.20;;;1.10;;
34645;SDS011;20857;47.808;12.482;2022-07-06T07:57:06;2.92;;;1.35;;
34645;SDS011;20857;47.808;12.482;2022-07-06T07:59:31;1.42;;;1.20;;
34645;SDS011;20857;47.808;12.482;2022-07-06T08:01:57;1.75;;;1.10;;
34645;SDS011;20857;47.808;12.482;2022-07-06T08:04:23;2.15;;;1.13;;
34645;SDS011;20857;47.808;12.482;2022-07-06T08:06:49;4.03;;;1.35;;
34645;SDS011;20857;47.808;12.482;2022-07-06T08:09:14;0.80;;;0.80;;
34645;SDS011;20857;47.808;12.482;2022-07-06T08:11:41;1.75;;;0.80;;
34645;SDS011;20857;47.808;12.482;2022-07-06T08:14:08;10.32;;;1.15;;
34645;SDS011;20857;47.808;12.482;2022-07-06T08:16:33;3.20;;;1.30;;
34645;SDS011;20857;47.808;12.482;2022-07-06T08:18:59;1.27;;;0.98;;
34645;SDS011;20857;47.808;12.482;2022-07-06T08:21:25;1.23;;;1.00;;
34645;SDS011;20857;47.808;12.482;2022-07-06T08:23:51;2.50;;;1.17;;
34645;SDS011;20857;47.808;12.482;2022-07-06T08:26:17;3.72;;;1.13;;
34645;SDS011;20857;47.808;12.482;2022-07-06T08:28:43;1.23;;;1.10;;
34645;SDS011;20857;47.808;12.482;2022-07-06T08:31:08;3.13;;;1.35;;
34645;SDS011;20857;47.808;12.482;2022-07-06T08:33:34;1.30;;;1.20;;
34645;SDS011;20857;47.808;12.482;2022-07-06T08:35:59;2.20;;;0.98;;
34645;SDS011;20857;47.808;12.482;2022-07-06T08:38:25;2.83;;;1.10;;
34645;SDS011;20857;47.808;12.482;2022-07-06T08:40:51;2.33;;;1.45;;
34645;SDS011;20857;47.808;12.482;2022-07-06T08:43:17;3.63;;;1.67;;
34645;SDS011;20857;47.808;12.482;2022-07-06T08:45:43;1.50;;;1.30;;
34645;SDS011;20857;47.808;12.482;2022-07-06T08:48:11;2.97;;;1.17;;
34645;SDS011;20857;47.808;12.482;2022-07-06T08:50:37;3.58;;;1.30;;
34645;SDS011;20857;47.808;12.482;2022-07-06T08:53:03;2.80;;;1.45;;
34645;SDS011;20857;47.808;12.482;2022-07-06T08:55:29;5.22;;;1.85;;
34645;SDS011;20857;47.808;12.482;2022-07-06T08:57:55;3.33;;;1.52;;
34645;SDS011;20857;47.808;12.482;2022-07-06T09:00:22;1.40;;;1.30;;
34645;SDS011;20857;47.808;12.482;2022-07-06T09:02:50;2.13;;;1.23;;
34645;SDS011;20857;47.808;12.482;2022-07-06T09:05:18;2.47;;;1.60;;
34645;SDS011;20857;47.808;12.482;2022-07-06T09:07:48;1.27;;;1.02;;
34645;SDS011;20857;47.808;12.482;2022-07-06T09:10:16;4.57;;;1.95;;
34645;SDS011;20857;47.808;12.482;2022-07-06T09:12:43;2.80;;;1.65;;
34645;SDS011;20857;47.808;12.482;2022-07-06T09:15:09;9.32;;;1.65;;
34645;SDS011;20857;47.808;12.482;2022-07-06T09:17:37;2.88;;;1.70;;
34645;SDS011;20857;47.808;12.482;2022-07-06T09:20:06;4.18;;;1.75;;
34645;SDS011;20857;47.808;12.482;2022-07-06T09:22:36;6.00;;;2.00;;
34645;SDS011;20857;47.808;12.482;2022-07-06T09:25:10;2.28;;;2.05;;
34645;SDS011;20857;47.808;12.482;2022-07-06T09:27:41;4.80;;;1.77;;
34645;SDS011;20857;47.808;12.482;2022-07-06T09:30:11;1.92;;;1.50;;
34645;SDS011;20857;47.808;12.482;2022-07-06T09:32:41;3.80;;;1.90;;
34645;SDS011;20857;47.808;12.482;2022-07-06T09:37:59;3.42;;;1.88;;
34645;SDS011;20857;47.808;12.482;2022-07-06T09:40:28;3.10;;;1.70;;
34645;SDS011;20857;47.808;12.482;2022-07-06T09:43:11;3.03;;;1.80;;
34645;SDS011;20857;47.808;12.482;2022-07-06T09:48:15;3.97;;;1.95;;
34645;SDS011;20857;47.808;12.482;2022-07-06T09:50:52;1.85;;;1.67;;
34645;SDS011;20857;47.808;12.482;2022-07-06T09:53:27;2.78;;;2.00;;
34645;SDS011;20857;47.808;12.482;2022-07-06T09:55:54;3.15;;;1.35;;
34645;SDS011;20857;47.808;12.482;2022-07-06T09:58:20;4.10;;;1.63;;
34645;SDS011;20857;47.808;12.482;2022-07-06T10:00:47;5.00;;;1.90;;
34645;SDS011;20857;47.808;12.482;2022-07-06T10:03:15;2.55;;;1.70;;
34645;SDS011;20857;47.808;12.482;2022-07-06T10:05:42;3.58;;;1.38;;
34645;SDS011;20857;47.808;12.482;2022-07-06T10:08:14;2.40;;;1.60;;
34645;SDS011;20857;47.808;12.482;2022-07-06T10:10:42;2.22;;;1.25;;
34645;SDS011;20857;47.808;12.482;2022-07-06T10:13:08;2.55;;;1.42;;
34645;SDS011;20857;47.808;12.482;2022-07-06T10:15:36;2.35;;;1.60;;
34645;SDS011;20857;47.808;12.482;2022-07-06T10:18:03;2.88;;;1.48;;
34645;SDS011;20857;47.808;12.482;2022-07-06T10:20:33;2.60;;;1.35;;
34645;SDS011;20857;47.808;12.482;2022-07-06T10:23:04;2.13;;;1.67;;
34645;SDS011;20857;47.808;12.482;2022-07-06T10:25:31;5.57;;;1.52;;
34645;SDS011;20857;47.808;12.482;2022-07-06T10:27:58;2.35;;;1.27;;
34645;SDS011;20857;47.808;12.482;2022-07-06T10:30:25;3.42;;;1.40;;
34645;SDS011;20857;47.808;12.482;2022-07-06T10:32:52;3.42;;;1.58;;
34645;SDS011;20857;47.808;12.482;2022-07-06T10:35:21;1.63;;;1.30;;
34645;SDS011;20857;47.808;12.482;2022-07-06T10:38:02;5.20;;;1.92;;
34645;SDS011;20857;47.808;12.482;2022-07-06T10:40:33;5.68;;;1.83;;
34645;SDS011;20857;47.808;12.482;2022-07-06T10:43:19;6.65;;;1.60;;
34645;SDS011;20857;47.808;12.482;2022-07-06T10:50:39;1.98;;;1.35;;
34645;SDS011;20857;47.808;12.482;2022-07-06T10:53:21;3.28;;;1.63;;
34645;SDS011;20857;47.808;12.482;2022-07-06T10:55:49;2.53;;;1.25;;
34645;SDS011;20857;47.808;12.482;2022-07-06T11:01:06;4.07;;;1.92;;
34645;SDS011;20857;47.808;12.482;2022-07-06T11:06:22;2.58;;;1.60;;
34645;SDS011;20857;47.808;12.482;2022-07-06T11:11:19;2.97;;;1.45;;
34645;SDS011;20857;47.808;12.482;2022-07-06T11:16:24;3.20;;;1.48;;
34645;SDS011;20857;47.808;12.482;2022-07-06T11:19:13;5.28;;;1.77;;
34645;SDS011;20857;47.808;12.482;2022-07-06T11:24:15;2.55;;;1.45;;
34645;SDS011;20857;47.808;12.482;2022-07-06T11:26:43;3.35;;;1.38;;
34645;SDS011;20857;47.808;12.482;2022-07-06T11:29:11;3.05;;;1.15;;
34645;SDS011;20857;47.808;12.482;2022-07-06T11:31:38;3.10;;;1.00;;
34645;SDS011;20857;47.808;12.482;2022-07-06T11:34:10;3.42;;;1.45;;
34645;SDS011;20857;47.808;12.482;2022-07-06T11:36:39;3.22;;;1.13;;
34645;SDS011;20857;47.808;12.482;2022-07-06T11:39:06;1.42;;;1.25;;
34645;SDS011;20857;47.808;12.482;2022-07-06T11:41:32;4.18;;;1.60;;
34645;SDS011;20857;47.808;12.482;2022-07-06T11:43:57;6.13;;;1.65;;
34645;SDS011;20857;47.808;12.482;2022-07-06T11:46:24;2.42;;;1.88;;
34645;SDS011;20857;47.808;12.482;2022-07-06T11:48:51;2.20;;;1.50;;
34645;SDS011;20857;47.808;12.482;2022-07-06T11:51:19;3.63;;;1.40;;
34645;SDS011;20857;47.808;12.482;2022-07-06T11:53:49;2.13;;;1.33;;
34645;SDS011;20857;47.808;12.482;2022-07-06T11:56:16;2.53;;;1.45;;
34645;SDS011;20857;47.808;12.482;2022-07-06T11:58:44;5.35;;;1.80;;
34645;SDS011;20857;47.808;12.482;2022-07-06T12:01:12;5.80;;;1.88;;
34645;SDS011;20857;47.808;12.482;2022-07-06T12:03:39;2.55;;;1.10;;
34645;SDS011;20857;47.808;12.482;2022-07-06T12:06:05;2.75;;;1.38;;
34645;SDS011;20857;47.808;12.482;2022-07-06T12:08:41;2.05;;;1.42;;
34645;SDS011;20857;47.808;12.482;2022-07-06T12:11:10;6.40;;;1.55;;
34645;SDS011;20857;47.808;12.482;2022-07-06T12:13:44;4.13;;;1.27;;
34645;SDS011;20857;47.808;12.482;2022-07-06T12:16:10;1.33;;;1.20;;
34645;SDS011;20857;47.808;12.482;2022-07-06T12:18:43;2.97;;;1.20;;
34645;SDS011;20857;47.808;12.482;2022-07-06T12:21:12;3.10;;;1.52;;
34645;SDS011;20857;47.808;12.482;2022-07-06T12:23:43;7.10;;;1.38;;
34645;SDS011;20857;47.808;12.482;2022-07-06T12:26:14;2.05;;;1.20;;
34645;SDS011;20857;47.808;12.482;2022-07-06T12:28:41;4.38;;;1.23;;
34645;SDS011;20857;47.808;12.482;2022-07-06T12:31:08;4.50;;;1.50;;
34645;SDS011;20857;47.808;12.482;2022-07-06T12:33:34;4.22;;;1.50;;
34645;SDS011;20857;47.808;12.482;2022-07-06T12:36:09;2.53;;;1.48;;
34645;SDS011;20857;47.808;12.482;2022-07-06T12:38:46;2.47;;;1.23;;
34645;SDS011;20857;47.808;12.482;2022-07-06T12:41:32;5.53;;;1.55;;
34645;SDS011;20857;47.808;12.482;2022-07-06T12:44:00;2.75;;;1.25;;
34645;SDS011;20857;47.808;12.482;2022-07-06T12:49:01;2.83;;;1.13;;
34645;SDS011;20857;47.808;12.482;2022-07-06T12:54:32;1.67;;;1.40;;
34645;SDS011;20857;47.808;12.482;2022-07-06T12:57:18;2.03;;;1.35;;
34645;SDS011;20857;47.808;12.482;2022-07-06T12:59:46;7.22;;;1.67;;
34645;SDS011;20857;47.808;12.482;2022-07-06T13:02:43;2.85;;;1.00;;
34645;SDS011;20857;47.808;12.482;2022-07-06T13:05:06;1.45;;;1.05;;
34645;SDS011;20857;47.808;12.482;2022-07-06T13:07:35;2.28;;;1.48;;
34645;SDS011;20857;47.808;12.482;2022-07-06T13:10:03;5.28;;;1.20;;
34645;SDS011;20857;47.808;12.482;2022-07-06T13:12:31;4.18;;;1.15;;
34645;SDS011;20857;47.808;12.482;2022-07-06T13:14:57;3.22;;;1.60;;
34645;SDS011;20857;47.808;12.482;2022-07-06T13:17:23;1.70;;;1.48;;
34645;SDS011;20857;47.808;12.482;2022-07-06T13:19:49;4.10;;;1.83;;
34645;SDS011;20857;47.808;12.482;2022-07-06T13:22:17;2.88;;;1.73;;
34645;SDS011;20857;47.808;12.482;2022-07-06T13:24:45;2.67;;;1.80;;
34645;SDS011;20857;47.808;12.482;2022-07-06T13:27:11;4.45;;;1.42;;
34645;SDS011;20857;47.808;12.482;2022-07-06T13:29:37;1.55;;;1.42;;
34645;SDS011;20857;47.808;12.482;2022-07-06T13:32:03;4.20;;;1.50;;
34645;SDS011;20857;47.808;12.482;2022-07-06T13:34:30;5.50;;;1.90;;
34645;SDS011;20857;47.808;12.482;2022-07-06T13:36:56;4.05;;;1.75;;
34645;SDS011;20857;47.808;12.482;2022-07-06T13:39:22;3.05;;;1.40;;
34645;SDS011;20857;47.808;12.482;2022-07-06T13:41:48;4.03;;;1.60;;
34645;SDS011;20857;47.808;12.482;2022-07-06T13:44:14;4.45;;;1.52;;
34645;SDS011;20857;47.808;12.482;2022-07-06T13:46:40;5.53;;;1.70;;
34645;SDS011;20857;47.808;12.482;2022-07-06T13:49:06;2.92;;;1.83;;
34645;SDS011;20857;47.808;12.482;2022-07-06T13:51:32;7.95;;;1.77;;
34645;SDS011;20857;47.808;12.482;2022-07-06T13:53:58;2.38;;;1.75;;
34645;SDS011;20857;47.808;12.482;2022-07-06T13:56:24;1.52;;;1.40;;
34645;SDS011;20857;47.808;12.482;2022-07-06T13:58:51;5.15;;;1.98;;
34645;SDS011;20857;47.808;12.482;2022-07-06T14:01:17;2.53;;;1.33;;
34645;SDS011;20857;47.808;12.482;2022-07-06T14:03:43;3.50;;;1.55;;
34645;SDS011;20857;47.808;12.482;2022-07-06T14:06:09;10.32;;;1.85;;
34645;SDS011;20857;47.808;12.482;2022-07-06T14:08:35;5.70;;;1.77;;
34645;SDS011;20857;47.808;12.482;2022-07-06T14:11:02;2.00;;;1.58;;
34645;SDS011;20857;47.808;12.482;2022-07-06T14:13:28;2.58;;;1.85;;
34645;SDS011;20857;47.808;12.482;2022-07-06T14:15:54;4.22;;;1.70;;
34645;SDS011;20857;47.808;12.482;2022-07-06T14:18:20;3.55;;;1.85;;
34645;SDS011;20857;47.808;12.482;2022-07-06T14:20:46;2.70;;;1.75;;
34645;SDS011;20857;47.808;12.482;2022-07-06T14:23:13;2.85;;;1.65;;
34645;SDS011;20857;47.808;12.482;2022-07-06T14:25:41;2.67;;;1.40;;
34645;SDS011;20857;47.808;12.482;2022-07-06T14:28:07;3.35;;;1.52;;
34645;SDS011;20857;47.808;12.482;2022-07-06T14:30:34;2.83;;;1.63;;
34645;SDS011;20857;47.808;12.482;2022-07-06T14:33:03;3.20;;;1.30;;
34645;SDS011;20857;47.808;12.482;2022-07-06T14:35:34;2.70;;;1.40;;
34645;SDS011;20857;47.808;12.482;2022-07-06T14:38:00;2.10;;;1.33;;
34645;SDS011;20857;47.808;12.482;2022-07-06T14:40:27;3.25;;;1.30;;
34645;SDS011;20857;47.808;12.482;2022-07-06T14:42:53;7.13;;;1.60;;
34645;SDS011;20857;47.808;12.482;2022-07-06T14:45:18;4.22;;;1.40;;
34645;SDS011;20857;47.808;12.482;2022-07-06T14:47:44;2.83;;;1.35;;
34645;SDS011;20857;47.808;12.482;2022-07-06T14:50:10;2.20;;;1.27;;
34645;SDS011;20857;47.808;12.482;2022-07-06T14:52:35;2.92;;;1.25;;
34645;SDS011;20857;47.808;12.482;2022-07-06T14:55:01;5.55;;;1.42;;
34645;SDS011;20857;47.808;12.482;2022-07-06T14:57:27;1.40;;;1.30;;
34645;SDS011;20857;47.808;12.482;2022-07-06T14:59:53;3.38;;;1.30;;
34645;SDS011;20857;47.808;12.482;2022-07-06T15:02:18;4.55;;;1.00;;
34645;SDS011;20857;47.808;12.482;2022-07-06T15:04:44;3.80;;;1.55;;
34645;SDS011;20857;47.808;12.482;2022-07-06T15:07:09;1.60;;;1.40;;
34645;SDS011;20857;47.808;12.482;2022-07-06T15:09:36;2.50;;;1.08;;